createdAt,value
2023-05-05T00:00:25.913Z,34.43
2023-05-05T00:01:25.931Z,34.42
2023-05-05T00:02:25.992Z,34.43
2023-05-05T00:03:26.090Z,34.46
2023-05-05T00:04:26.049Z,34.44
2023-05-05T00:05:26.083Z,34.44
2023-05-05T00:06:26.123Z,34.42
2023-05-05T00:07:26.163Z,34.40
2023-05-05T00:08:26.234Z,34.37
2023-05-05T00:09:26.257Z,34.36
2023-05-05T00:10:26.288Z,34.35
2023-05-05T00:11:26.349Z,34.35
2023-05-05T00:12:26.356Z,34.36
2023-05-05T00:13:26.390Z,34.36
2023-05-05T00:14:26.463Z,34.35
2023-05-05T00:15:26.498Z,34.36
2023-05-05T00:16:26.571Z,34.36
2023-05-05T00:17:26.570Z,34.34
2023-05-05T00:18:26.586Z,34.32
2023-05-05T00:19:26.636Z,34.34
2023-05-05T00:20:26.706Z,34.32
2023-05-05T00:21:26.714Z,34.30
2023-05-05T00:22:26.788Z,34.30
2023-05-05T00:23:26.796Z,34.30
2023-05-05T00:24:26.846Z,34.32
2023-05-05T00:25:26.869Z,34.31
2023-05-05T00:26:26.924Z,34.31
2023-05-05T00:27:26.934Z,34.31
2023-05-05T00:28:27.003Z,34.28
2023-05-05T00:29:27.010Z,34.32
2023-05-05T00:30:27.079Z,34.34
2023-05-05T00:31:27.208Z,34.33
2023-05-05T00:32:27.199Z,34.33
2023-05-05T00:33:27.190Z,34.34
2023-05-05T00:34:27.267Z,34.34
2023-05-05T00:35:27.309Z,34.36
2023-05-05T00:36:27.359Z,34.35
2023-05-05T00:37:27.353Z,34.36
2023-05-05T00:38:27.414Z,34.38
2023-05-05T00:39:27.467Z,34.39
2023-05-05T00:40:27.544Z,34.38
2023-05-05T00:41:27.531Z,34.40
2023-05-05T00:42:27.605Z,34.40
2023-05-05T00:43:27.654Z,34.40
2023-05-05T00:44:27.671Z,34.47
2023-05-05T00:45:27.706Z,34.48
2023-05-05T00:46:27.906Z,34.47
2023-05-05T00:47:27.864Z,34.49
2023-05-05T00:48:27.844Z,34.48
2023-05-05T00:49:27.968Z,34.51
2023-05-05T00:50:27.962Z,34.48
2023-05-05T00:51:28.000Z,34.51
2023-05-05T00:52:28.035Z,34.51
2023-05-05T00:53:28.083Z,34.53
2023-05-05T00:54:28.157Z,34.57
2023-05-05T00:55:28.199Z,34.56
2023-05-05T00:56:28.238Z,34.56
2023-05-05T00:57:28.314Z,34.58
2023-05-05T00:58:28.350Z,34.59
2023-05-05T00:59:28.439Z,34.62
2023-05-05T01:00:28.450Z,34.60
2023-05-05T01:01:28.570Z,34.60
2023-05-05T01:02:28.649Z,34.65
2023-05-05T01:03:28.733Z,34.59
2023-05-05T01:04:28.673Z,34.61
2023-05-05T01:05:28.738Z,34.60
2023-05-05T01:06:28.779Z,34.61
2023-05-05T01:07:28.825Z,34.61
2023-05-05T01:08:28.885Z,34.64
2023-05-05T01:09:28.984Z,34.65
2023-05-05T01:10:28.983Z,34.67
2023-05-05T01:11:29.059Z,34.65
2023-05-05T01:12:29.107Z,34.65
2023-05-05T01:13:29.158Z,34.67
2023-05-05T01:14:29.194Z,34.67
2023-05-05T01:15:29.221Z,34.67
2023-05-05T01:16:29.380Z,34.69
2023-05-05T01:17:29.363Z,34.71
2023-05-05T01:18:29.392Z,34.73
2023-05-05T01:19:29.460Z,34.75
2023-05-05T01:20:29.508Z,34.73
2023-05-05T01:21:29.566Z,34.73
2023-05-05T01:22:29.593Z,34.74
2023-05-05T01:23:29.633Z,34.77
2023-05-05T01:24:29.663Z,34.79
2023-05-05T01:25:29.708Z,34.79
2023-05-05T01:26:29.758Z,34.80
2023-05-05T01:27:29.771Z,34.78
2023-05-05T01:28:29.768Z,34.81
2023-05-05T01:29:29.838Z,34.79
2023-05-05T01:30:29.854Z,34.81
2023-05-05T01:31:29.946Z,34.79
2023-05-05T01:32:30.004Z,34.81
2023-05-05T01:33:29.983Z,34.80
2023-05-05T01:34:30.079Z,34.80
2023-05-05T01:35:30.120Z,34.80
2023-05-05T01:36:30.113Z,34.82
2023-05-05T01:37:30.136Z,34.82
2023-05-05T01:38:30.146Z,34.81
2023-05-05T01:39:30.254Z,34.83
2023-05-05T01:40:30.254Z,34.82
2023-05-05T01:41:30.300Z,34.82
2023-05-05T01:42:30.340Z,34.81
2023-05-05T01:43:30.352Z,34.83
2023-05-05T01:44:30.428Z,34.84
2023-05-05T01:45:30.502Z,34.83
2023-05-05T01:46:30.493Z,34.82
2023-05-05T01:47:30.559Z,34.82
2023-05-05T01:48:30.568Z,34.83
2023-05-05T01:49:30.547Z,34.81
2023-05-05T01:50:30.596Z,34.85
2023-05-05T01:51:30.622Z,34.83
2023-05-05T01:52:30.586Z,34.85
2023-05-05T01:53:30.631Z,34.83
2023-05-05T01:54:30.620Z,34.86
2023-05-05T01:55:30.664Z,34.86
2023-05-05T01:56:30.741Z,34.85
2023-05-05T01:57:30.685Z,34.86
2023-05-05T01:58:30.676Z,34.86
2023-05-05T01:59:30.677Z,34.88
2023-05-05T02:00:30.738Z,34.88
2023-05-05T02:01:30.758Z,34.88
2023-05-05T02:02:30.787Z,34.89
2023-05-05T02:03:30.786Z,34.86
2023-05-05T02:04:30.717Z,34.86
2023-05-05T02:05:30.742Z,34.89
2023-05-05T02:06:30.767Z,34.88
2023-05-05T02:07:30.729Z,34.88
2023-05-05T02:08:30.756Z,34.89
2023-05-05T02:09:30.769Z,34.89
2023-05-05T02:10:30.758Z,34.87
2023-05-05T02:11:30.773Z,34.87
2023-05-05T02:12:30.846Z,34.87
2023-05-05T02:13:30.782Z,34.87
2023-05-05T02:14:30.812Z,34.86
2023-05-05T02:15:30.865Z,34.90
2023-05-05T02:16:30.802Z,34.92
2023-05-05T02:17:30.862Z,34.91
2023-05-05T02:18:30.822Z,34.92
2023-05-05T02:19:30.826Z,34.95
2023-05-05T02:20:30.907Z,34.95
2023-05-05T02:21:30.868Z,34.99
2023-05-05T02:22:30.860Z,34.97
2023-05-05T02:23:30.915Z,35.00
2023-05-05T02:24:31.016Z,35.01
2023-05-05T02:25:30.875Z,35.04
2023-05-05T02:26:30.884Z,35.04
2023-05-05T02:27:30.877Z,35.03
2023-05-05T02:28:30.837Z,35.03
2023-05-05T02:29:30.868Z,35.04
2023-05-05T02:30:30.838Z,35.04
2023-05-05T02:31:30.907Z,35.05
2023-05-05T02:32:30.845Z,35.06
2023-05-05T02:33:30.816Z,35.09
2023-05-05T02:34:30.824Z,35.09
2023-05-05T02:35:31.504Z,35.12
2023-05-05T02:36:30.791Z,35.12
2023-05-05T02:37:30.787Z,35.13
2023-05-05T02:38:30.804Z,35.12
2023-05-05T02:39:30.780Z,35.15
2023-05-05T02:40:30.800Z,35.12
2023-05-05T02:41:30.837Z,35.13
2023-05-05T02:42:30.814Z,35.16
2023-05-05T02:43:30.817Z,35.14
2023-05-05T02:44:30.853Z,35.16
2023-05-05T02:45:30.893Z,35.15
2023-05-05T02:46:30.917Z,35.15
2023-05-05T02:47:30.954Z,35.16
2023-05-05T02:48:30.898Z,35.16
2023-05-05T02:49:30.905Z,35.15
2023-05-05T02:50:30.945Z,35.14
2023-05-05T02:51:30.932Z,35.13
2023-05-05T02:52:30.918Z,35.18
2023-05-05T02:53:30.925Z,35.17
2023-05-05T02:54:30.965Z,35.18
2023-05-05T02:55:30.960Z,35.20
2023-05-05T02:56:30.967Z,35.19
2023-05-05T02:57:31.003Z,35.21
2023-05-05T02:58:31.035Z,35.21
2023-05-05T02:59:31.021Z,35.26
2023-05-05T03:00:31.078Z,35.27
2023-05-05T03:01:31.073Z,35.28
2023-05-05T03:02:31.189Z,35.29
2023-05-05T03:03:31.082Z,35.27
2023-05-05T03:04:31.057Z,35.31
2023-05-05T03:05:31.094Z,35.28
2023-05-05T03:06:31.144Z,35.29
2023-05-05T03:07:31.100Z,35.26
2023-05-05T03:08:31.098Z,35.25
2023-05-05T03:09:31.114Z,35.27
2023-05-05T03:10:31.157Z,35.26
2023-05-05T03:11:31.146Z,35.25
2023-05-05T03:12:31.183Z,35.25
2023-05-05T03:13:31.154Z,35.23
2023-05-05T03:14:33.297Z,35.25
2023-05-05T03:15:31.199Z,35.24
2023-05-05T03:16:31.169Z,35.22
2023-05-05T03:17:31.203Z,35.24
2023-05-05T03:18:31.215Z,35.22
2023-05-05T03:19:31.234Z,35.19
2023-05-05T03:20:31.252Z,35.22
2023-05-05T03:21:31.245Z,35.21
2023-05-05T03:22:31.275Z,35.21
2023-05-05T03:23:31.268Z,35.20
2023-05-05T03:24:31.325Z,35.22
2023-05-05T03:25:32.105Z,35.22
2023-05-05T03:26:31.317Z,35.22
2023-05-05T03:27:31.364Z,35.22
2023-05-05T03:28:31.329Z,35.20
2023-05-05T03:29:31.369Z,35.20
2023-05-05T03:30:31.371Z,35.18
2023-05-05T03:31:31.408Z,35.20
2023-05-05T03:32:31.411Z,35.21
2023-05-05T03:33:31.414Z,35.19
2023-05-05T03:34:31.417Z,35.23
2023-05-05T03:35:31.413Z,35.22
2023-05-05T03:36:31.436Z,35.24
2023-05-05T03:37:31.437Z,35.26
2023-05-05T03:38:31.416Z,35.29
2023-05-05T03:39:31.455Z,35.30
2023-05-05T03:40:43.030Z,35.32
2023-05-05T03:41:32.462Z,35.34
2023-05-05T03:42:31.477Z,35.35
2023-05-05T03:43:31.451Z,35.33
2023-05-05T03:44:31.465Z,35.35
2023-05-05T03:45:31.474Z,35.34
2023-05-05T03:46:31.438Z,35.33
2023-05-05T03:47:31.472Z,35.36
2023-05-05T03:48:31.417Z,35.38
2023-05-05T03:49:31.433Z,35.39
2023-05-05T03:50:31.413Z,35.40
2023-05-05T03:51:31.444Z,35.43
2023-05-05T03:52:31.375Z,35.43
2023-05-05T03:53:31.371Z,35.44
2023-05-05T03:54:31.373Z,35.44
2023-05-05T03:55:31.384Z,35.44
2023-05-05T03:56:31.391Z,35.43
2023-05-05T03:57:31.369Z,35.43
2023-05-05T03:58:31.344Z,35.44
2023-05-05T03:59:31.334Z,35.45
2023-05-05T04:00:31.335Z,35.47
2023-05-05T04:01:31.324Z,35.47
2023-05-05T04:02:31.411Z,35.44
2023-05-05T04:03:31.565Z,35.44
2023-05-05T04:04:31.402Z,35.44
2023-05-05T04:05:31.304Z,35.42
2023-05-05T04:06:31.285Z,35.41
2023-05-05T04:07:31.271Z,35.42
2023-05-05T04:08:31.286Z,35.42
2023-05-05T04:09:31.323Z,35.38
2023-05-05T04:10:31.354Z,35.40
2023-05-05T04:11:31.365Z,35.40
2023-05-05T04:12:31.378Z,35.39
2023-05-05T04:13:31.343Z,35.37
2023-05-05T04:14:31.330Z,35.37
2023-05-05T04:15:31.385Z,35.38
2023-05-05T04:16:31.406Z,35.38
2023-05-05T04:17:31.417Z,35.38
2023-05-05T04:18:31.419Z,35.38
2023-05-05T04:19:31.435Z,35.37
2023-05-05T04:20:31.466Z,35.37
2023-05-05T04:21:31.437Z,35.38
2023-05-05T04:22:31.450Z,35.38
2023-05-05T04:23:31.469Z,35.37
2023-05-05T04:24:31.465Z,35.36
2023-05-05T04:25:31.514Z,35.37
2023-05-05T04:26:33.067Z,35.37
2023-05-05T04:27:31.504Z,35.35
2023-05-05T04:28:31.497Z,35.34
2023-05-05T04:29:31.542Z,35.38
2023-05-05T04:30:31.519Z,35.35
2023-05-05T04:31:31.589Z,35.38
2023-05-05T04:32:31.575Z,35.35
2023-05-05T04:33:31.539Z,35.35
2023-05-05T04:34:31.554Z,35.39
2023-05-05T04:35:31.554Z,35.37
2023-05-05T04:36:31.607Z,35.38
2023-05-05T04:37:31.583Z,35.39
2023-05-05T04:38:31.659Z,35.40
2023-05-05T04:39:31.642Z,35.38
2023-05-05T04:40:31.632Z,35.42
2023-05-05T04:41:31.663Z,35.42
2023-05-05T04:42:31.668Z,35.42
2023-05-05T04:43:31.669Z,35.44
2023-05-05T04:44:31.733Z,35.42
2023-05-05T04:45:31.733Z,35.42
2023-05-05T04:46:31.783Z,35.42
2023-05-05T04:47:31.845Z,35.44
2023-05-05T04:48:31.792Z,35.44
2023-05-05T04:49:31.776Z,35.44
2023-05-05T04:50:31.776Z,35.47
2023-05-05T04:51:31.835Z,35.49
2023-05-05T04:52:31.826Z,35.48
2023-05-05T04:53:31.807Z,35.48
2023-05-05T04:54:31.841Z,35.51
2023-05-05T04:55:31.833Z,35.49
2023-05-05T04:56:31.889Z,35.49
2023-05-05T04:57:31.893Z,35.48
2023-05-05T04:58:31.876Z,35.47
2023-05-05T04:59:31.858Z,35.45
2023-05-05T05:00:31.881Z,35.42
2023-05-05T05:01:31.929Z,35.43
2023-05-05T05:02:31.962Z,35.40
2023-05-05T05:03:32.143Z,35.41
2023-05-05T05:04:31.912Z,35.39
2023-05-05T05:05:31.958Z,35.38
2023-05-05T05:06:31.969Z,35.35
2023-05-05T05:07:31.967Z,35.36
2023-05-05T05:08:31.956Z,35.36
2023-05-05T05:09:31.998Z,35.36
2023-05-05T05:10:31.986Z,35.35
2023-05-05T05:11:32.019Z,35.34
2023-05-05T05:12:32.097Z,35.38
2023-05-05T05:13:32.039Z,35.37
2023-05-05T05:14:32.017Z,35.37
2023-05-05T05:15:32.049Z,35.35
2023-05-05T05:16:32.062Z,35.35
2023-05-05T05:17:32.090Z,35.38
2023-05-05T05:18:32.060Z,35.39
2023-05-05T05:19:32.072Z,35.36
2023-05-05T05:20:32.060Z,35.37
2023-05-05T05:21:32.056Z,35.36
2023-05-05T05:22:32.074Z,35.36
2023-05-05T05:23:32.092Z,35.35
2023-05-05T05:24:32.083Z,35.36
2023-05-05T05:25:32.106Z,35.33
2023-05-05T05:26:32.144Z,35.32
2023-05-05T05:27:33.055Z,35.32
2023-05-05T05:28:32.154Z,35.32
2023-05-05T05:29:32.152Z,35.33
2023-05-05T05:30:32.154Z,35.34
2023-05-05T05:31:32.174Z,35.33
2023-05-05T05:32:33.179Z,35.34
2023-05-05T05:33:32.210Z,35.33
2023-05-05T05:34:32.194Z,35.32
2023-05-05T05:35:32.200Z,35.36
2023-05-05T05:36:32.551Z,35.32
2023-05-05T05:37:32.281Z,35.39
2023-05-05T05:38:32.295Z,35.57
2023-05-05T05:39:32.268Z,35.55
2023-05-05T05:40:32.320Z,35.71
2023-05-05T05:41:32.376Z,36.07
2023-05-05T05:42:32.309Z,36.66
2023-05-05T05:43:32.312Z,36.00
2023-05-05T05:44:32.356Z,36.07
2023-05-05T05:45:32.410Z,36.16
2023-05-05T05:46:32.482Z,36.39
2023-05-05T05:47:32.525Z,36.12
2023-05-05T05:48:32.523Z,36.48
2023-05-05T05:49:32.590Z,36.36
2023-05-05T05:50:32.620Z,36.77
2023-05-05T05:51:32.682Z,38.04
2023-05-05T05:52:32.697Z,37.44
2023-05-05T05:53:32.767Z,37.45
2023-05-05T05:54:32.773Z,37.82
2023-05-05T05:55:32.893Z,38.00
2023-05-05T05:56:32.858Z,37.75
2023-05-05T05:57:32.916Z,37.34
2023-05-05T05:58:32.964Z,37.16
2023-05-05T05:59:32.989Z,37.10
2023-05-05T06:00:33.012Z,36.98
2023-05-05T06:01:33.088Z,37.00
2023-05-05T06:02:33.250Z,37.02
2023-05-05T06:03:33.343Z,37.08
2023-05-05T06:04:33.363Z,37.07
2023-05-05T06:05:33.268Z,37.05
2023-05-05T06:06:33.377Z,37.03
2023-05-05T06:07:33.385Z,37.03
2023-05-05T06:08:33.445Z,37.05
2023-05-05T06:09:33.496Z,37.02
2023-05-05T06:10:34.007Z,37.03
2023-05-05T06:11:33.661Z,37.02
2023-05-05T06:12:33.715Z,37.04
2023-05-05T06:13:33.697Z,37.02
2023-05-05T06:14:33.759Z,37.05
2023-05-05T06:15:33.810Z,36.99
2023-05-05T06:16:33.990Z,36.96
2023-05-05T06:17:33.931Z,36.96
2023-05-05T06:18:34.040Z,36.93
2023-05-05T06:19:34.066Z,36.91
2023-05-05T06:20:34.092Z,36.91
2023-05-05T06:21:34.156Z,36.88
2023-05-05T06:22:34.204Z,36.90
2023-05-05T06:23:34.264Z,36.87
2023-05-05T06:24:34.289Z,36.90
2023-05-05T06:25:34.327Z,36.89
2023-05-05T06:26:34.572Z,36.87
2023-05-05T06:27:34.454Z,36.80
2023-05-05T06:28:34.461Z,36.78
2023-05-05T06:29:34.506Z,36.76
2023-05-05T06:30:34.571Z,36.68
2023-05-05T06:31:34.693Z,36.64
2023-05-05T06:32:34.656Z,36.64
2023-05-05T06:33:34.674Z,36.62
2023-05-05T06:34:34.725Z,36.59
2023-05-05T06:35:34.770Z,36.48
2023-05-05T06:36:34.837Z,36.47
2023-05-05T06:37:34.777Z,36.44
2023-05-05T06:38:34.792Z,36.47
2023-05-05T06:39:34.795Z,36.43
2023-05-05T06:40:34.813Z,36.41
2023-05-05T06:41:34.857Z,36.36
2023-05-05T06:42:34.853Z,36.30
2023-05-05T06:43:34.845Z,36.29
2023-05-05T06:44:34.856Z,36.26
2023-05-05T06:45:34.921Z,36.26
2023-05-05T06:46:34.945Z,36.23
2023-05-05T06:47:34.952Z,36.26
2023-05-05T06:48:34.934Z,36.68
2023-05-05T06:49:34.896Z,37.31
2023-05-05T06:50:35.092Z,36.97
2023-05-05T06:51:34.993Z,37.10
2023-05-05T06:52:34.942Z,37.18
2023-05-05T06:53:34.990Z,37.21
2023-05-05T06:54:35.067Z,38.07
2023-05-05T06:55:35.106Z,37.59
2023-05-05T06:56:35.194Z,37.75
2023-05-05T06:57:35.205Z,37.60
2023-05-05T06:58:35.230Z,37.69
2023-05-05T06:59:35.286Z,37.59
2023-05-05T07:00:35.351Z,37.46
2023-05-05T07:01:35.344Z,37.45
2023-05-05T07:02:35.438Z,38.21
2023-05-05T07:03:35.457Z,37.36
2023-05-05T07:04:35.428Z,37.14
2023-05-05T07:05:35.472Z,36.90
2023-05-05T07:06:35.678Z,36.25
2023-05-05T07:07:35.512Z,36.07
2023-05-05T07:08:35.520Z,35.85
2023-05-05T07:09:35.548Z,36.01
2023-05-05T07:10:35.605Z,35.90
2023-05-05T07:11:35.633Z,35.51
2023-05-05T07:12:35.684Z,35.46
2023-05-05T07:13:35.725Z,35.38
2023-05-05T07:14:35.721Z,35.46
2023-05-05T07:15:35.783Z,35.39
2023-05-05T07:16:35.846Z,35.20
2023-05-05T07:17:35.818Z,35.39
2023-05-05T07:18:35.864Z,35.28
2023-05-05T07:19:35.853Z,35.05
2023-05-05T07:20:35.932Z,34.95
2023-05-05T07:21:35.931Z,34.69
2023-05-05T07:22:36.058Z,34.67
2023-05-05T07:23:35.988Z,34.60
2023-05-05T07:24:36.066Z,34.58
2023-05-05T07:25:36.046Z,35.09
2023-05-05T07:26:36.121Z,35.02
2023-05-05T07:27:36.136Z,35.08
2023-05-05T07:28:36.169Z,35.04
2023-05-05T07:29:36.243Z,34.33
2023-05-05T07:30:36.205Z,34.41
2023-05-05T07:31:36.318Z,34.43
2023-05-05T07:32:36.262Z,34.30
2023-05-05T07:33:36.280Z,34.29
2023-05-05T07:34:36.295Z,34.47
2023-05-05T07:35:36.303Z,34.93
2023-05-05T07:36:36.420Z,35.01
2023-05-05T07:37:36.289Z,34.55
2023-05-05T07:38:36.335Z,34.67
2023-05-05T07:39:36.255Z,34.54
2023-05-05T07:40:36.251Z,34.55
2023-05-05T07:41:36.258Z,33.93
2023-05-05T07:42:36.586Z,34.38
2023-05-05T07:43:36.201Z,34.33
2023-05-05T07:44:36.270Z,34.30
2023-05-05T07:45:36.243Z,34.28
2023-05-05T07:46:36.475Z,33.94
2023-05-05T07:47:36.661Z,34.30
2023-05-05T07:48:36.193Z,34.81
2023-05-05T07:49:36.241Z,35.33
2023-05-05T07:50:36.220Z,35.36
2023-05-05T07:51:36.159Z,34.96
2023-05-05T07:52:46.912Z,34.71
2023-05-05T07:53:37.177Z,34.63
2023-05-05T07:54:36.236Z,34.24
2023-05-05T07:55:36.144Z,34.05
2023-05-05T07:56:36.184Z,33.87
2023-05-05T07:57:36.153Z,33.65
2023-05-05T07:58:36.157Z,33.48
2023-05-05T07:59:36.131Z,33.34
2023-05-05T08:00:36.156Z,33.29
2023-05-05T08:01:36.127Z,33.33
2023-05-05T08:02:36.217Z,33.07
2023-05-05T08:03:36.272Z,32.92
2023-05-05T08:04:36.209Z,32.98
2023-05-05T08:05:36.065Z,32.87
2023-05-05T08:06:36.066Z,32.83
2023-05-05T08:07:36.071Z,32.78
2023-05-05T08:08:36.073Z,32.71
2023-05-05T08:09:36.058Z,32.64
2023-05-05T08:10:36.047Z,32.64
2023-05-05T08:11:36.056Z,32.66
2023-05-05T08:12:36.119Z,32.73
2023-05-05T08:13:36.067Z,32.78
2023-05-05T08:14:36.099Z,32.70
2023-05-05T08:15:36.109Z,32.65
2023-05-05T08:16:36.339Z,32.64
2023-05-05T08:17:36.279Z,32.63
2023-05-05T08:18:36.340Z,32.61
2023-05-05T08:19:36.384Z,32.66
2023-05-05T08:20:36.435Z,32.54
2023-05-05T08:21:36.470Z,32.44
2023-05-05T08:22:36.565Z,32.36
2023-05-05T08:23:36.580Z,32.43
2023-05-05T08:24:36.641Z,32.54
2023-05-05T08:25:36.701Z,32.50
2023-05-05T08:26:36.827Z,32.53
2023-05-05T08:27:36.792Z,32.55
2023-05-05T08:28:36.820Z,32.57
2023-05-05T08:29:36.918Z,32.53
2023-05-05T08:30:36.914Z,32.53
2023-05-05T08:31:36.999Z,32.40
2023-05-05T08:32:37.055Z,32.39
2023-05-05T08:33:37.050Z,32.45
2023-05-05T08:34:37.135Z,32.60
2023-05-05T08:35:37.272Z,32.57
2023-05-05T08:36:37.228Z,33.34
2023-05-05T08:37:37.641Z,33.25
2023-05-05T08:38:37.345Z,33.17
2023-05-05T08:39:37.412Z,32.89
2023-05-05T08:40:37.420Z,32.98
2023-05-05T08:41:37.503Z,32.88
2023-05-05T08:42:39.150Z,32.99
2023-05-05T08:43:37.582Z,33.10
2023-05-05T08:44:37.625Z,33.27
2023-05-05T08:45:37.682Z,33.68
2023-05-05T08:46:37.705Z,35.42
2023-05-05T08:47:37.824Z,34.63
2023-05-05T08:48:37.777Z,34.40
2023-05-05T08:49:37.839Z,34.37
2023-05-05T08:50:37.875Z,34.48
2023-05-05T08:51:37.880Z,34.59
2023-05-05T08:52:38.189Z,34.95
2023-05-05T08:53:37.934Z,34.46
2023-05-05T08:54:37.998Z,34.04
2023-05-05T08:55:37.983Z,33.84
2023-05-05T08:56:38.026Z,33.52
2023-05-05T08:57:38.055Z,33.69
2023-05-05T08:58:38.138Z,33.80
2023-05-05T08:59:38.061Z,33.85
2023-05-05T09:00:38.054Z,34.20
2023-05-05T09:01:38.194Z,34.25
2023-05-05T09:02:38.220Z,34.34
2023-05-05T09:03:38.265Z,34.37
2023-05-05T09:04:38.251Z,34.77
2023-05-05T09:05:38.287Z,34.86
2023-05-05T09:06:38.387Z,34.72
2023-05-05T09:07:38.604Z,35.25
2023-05-05T09:08:38.454Z,35.03
2023-05-05T09:09:38.491Z,35.24
2023-05-05T09:10:38.498Z,35.12
2023-05-05T09:11:38.561Z,35.16
2023-05-05T09:12:38.614Z,35.12
2023-05-05T09:13:38.594Z,35.14
2023-05-05T09:14:38.631Z,35.10
2023-05-05T09:15:38.620Z,35.22
2023-05-05T09:16:38.759Z,35.70
2023-05-05T09:17:38.747Z,35.44
2023-05-05T09:18:38.682Z,35.63
2023-05-05T09:19:38.696Z,35.47
2023-05-05T09:20:38.672Z,35.53
2023-05-05T09:21:38.724Z,35.63
2023-05-05T09:22:39.156Z,35.80
2023-05-05T09:23:38.716Z,35.94
2023-05-05T09:24:38.788Z,35.66
2023-05-05T09:25:38.822Z,35.66
2023-05-05T09:26:38.803Z,35.82
2023-05-05T09:27:39.136Z,35.77
2023-05-05T09:28:38.865Z,35.70
2023-05-05T09:29:38.830Z,35.78
2023-05-05T09:30:38.936Z,35.91
2023-05-05T09:31:38.962Z,36.03
2023-05-05T09:32:39.011Z,36.40
2023-05-05T09:33:39.020Z,36.40
2023-05-05T09:34:39.074Z,36.13
2023-05-05T09:35:39.668Z,36.30
2023-05-05T09:36:39.185Z,36.31
2023-05-05T09:37:39.649Z,36.21
2023-05-05T09:38:39.278Z,36.37
2023-05-05T09:39:39.345Z,36.32
2023-05-05T09:40:39.393Z,36.29
2023-05-05T09:41:39.532Z,36.11
2023-05-05T09:42:39.629Z,36.03
2023-05-05T09:43:39.524Z,36.12
2023-05-05T09:44:39.508Z,36.10
2023-05-05T09:45:39.544Z,36.13
2023-05-05T09:46:39.704Z,36.08
2023-05-05T09:47:39.654Z,36.14
2023-05-05T09:48:39.616Z,36.08
2023-05-05T09:49:39.736Z,36.18
2023-05-05T09:50:39.607Z,36.21
2023-05-05T09:51:39.608Z,36.24
2023-05-05T09:52:39.673Z,36.22
2023-05-05T09:53:39.680Z,36.20
2023-05-05T09:54:39.691Z,36.24
2023-05-05T09:55:39.703Z,36.27
2023-05-05T09:56:39.753Z,36.24
2023-05-05T09:57:40.171Z,36.26
2023-05-05T09:58:39.829Z,36.24
2023-05-05T09:59:39.802Z,36.21
2023-05-05T10:00:39.858Z,36.19
2023-05-05T10:01:39.875Z,36.19
2023-05-05T10:02:39.981Z,36.15
2023-05-05T10:03:39.913Z,36.09
2023-05-05T10:04:39.962Z,36.09
2023-05-05T10:05:40.003Z,36.10
2023-05-05T10:06:40.024Z,36.14
2023-05-05T10:07:40.136Z,36.12
2023-05-05T10:08:40.077Z,36.12
2023-05-05T10:09:40.081Z,36.12
2023-05-05T10:10:40.099Z,36.14
2023-05-05T10:11:40.140Z,36.10
2023-05-05T10:12:40.286Z,36.09
2023-05-05T10:13:40.212Z,36.08
2023-05-05T10:14:40.269Z,36.06
2023-05-05T10:15:40.282Z,36.05
2023-05-05T10:16:40.417Z,36.05
2023-05-05T10:17:43.960Z,36.05
2023-05-05T10:18:41.520Z,36.03
2023-05-05T10:19:40.393Z,36.07
2023-05-05T10:20:40.325Z,36.05
2023-05-05T10:21:41.956Z,36.03
2023-05-05T10:22:40.434Z,36.06
2023-05-05T10:23:40.383Z,36.06
2023-05-05T10:24:40.424Z,36.03
2023-05-05T10:25:40.418Z,36.04
2023-05-05T10:26:40.509Z,36.04
2023-05-05T10:27:40.530Z,36.02
2023-05-05T10:28:40.556Z,36.01
2023-05-05T10:29:40.639Z,35.99
2023-05-05T10:30:40.680Z,36.01
2023-05-05T10:31:40.696Z,36.01
2023-05-05T10:32:53.951Z,36.02
2023-05-05T10:33:42.363Z,36.04
2023-05-05T10:34:40.842Z,36.17
2023-05-05T10:35:40.694Z,37.05
2023-05-05T10:36:40.685Z,38.51
2023-05-05T10:37:40.680Z,37.28
2023-05-05T10:38:40.757Z,38.99
2023-05-05T10:39:40.711Z,38.16
2023-05-05T10:40:40.682Z,40.14
2023-05-05T10:41:40.652Z,39.47
2023-05-05T10:42:40.664Z,39.69
2023-05-05T10:43:40.685Z,40.21
2023-05-05T10:44:40.633Z,39.62
2023-05-05T10:45:40.803Z,40.14
2023-05-05T10:46:40.833Z,41.23
2023-05-05T10:47:40.690Z,40.30
2023-05-05T10:48:40.780Z,40.30
2023-05-05T10:49:40.689Z,39.93
2023-05-05T10:50:40.847Z,39.23
2023-05-05T10:51:41.304Z,39.14
2023-05-05T10:52:40.833Z,39.75
2023-05-05T10:53:40.842Z,40.57
2023-05-05T10:54:40.899Z,39.49
2023-05-05T10:55:40.989Z,39.06
2023-05-05T10:56:40.991Z,38.40
2023-05-05T10:57:41.068Z,39.06
2023-05-05T10:58:58.377Z,39.15
2023-05-05T10:59:42.074Z,40.47
2023-05-05T11:00:41.096Z,39.23
2023-05-05T11:01:41.064Z,40.40
2023-05-05T11:02:41.100Z,39.42
2023-05-05T11:03:41.146Z,39.19
2023-05-05T11:04:41.031Z,38.74
2023-05-05T11:05:41.041Z,44.35
2023-05-05T11:06:41.095Z,38.86
2023-05-05T11:07:41.021Z,38.06
2023-05-05T11:08:41.003Z,37.85
2023-05-05T11:09:41.041Z,37.59
2023-05-05T11:10:41.011Z,38.11
2023-05-05T11:11:41.019Z,39.45
2023-05-05T11:12:40.978Z,38.35
2023-05-05T11:13:41.018Z,38.66
2023-05-05T11:14:41.058Z,38.29
2023-05-05T11:15:41.014Z,38.60
2023-05-05T11:16:41.082Z,38.80
2023-05-05T11:17:41.146Z,39.12
2023-05-05T11:18:41.083Z,38.74
2023-05-05T11:19:41.075Z,38.85
2023-05-05T11:20:41.084Z,39.01
2023-05-05T11:21:41.082Z,39.08
2023-05-05T11:22:41.124Z,39.14
2023-05-05T11:23:41.133Z,39.51
2023-05-05T11:24:41.125Z,39.48
2023-05-05T11:25:41.327Z,39.61
2023-05-05T11:26:41.156Z,39.71
2023-05-05T11:27:41.162Z,39.73
2023-05-05T11:28:41.759Z,40.25
2023-05-05T11:29:41.235Z,40.60
2023-05-05T11:30:41.336Z,40.32
2023-05-05T11:31:41.586Z,40.56
2023-05-05T11:32:41.406Z,40.40
2023-05-05T11:33:42.050Z,40.24
2023-05-05T11:34:41.338Z,40.18
2023-05-05T11:35:41.354Z,40.00
2023-05-05T11:36:41.346Z,39.88
2023-05-05T11:37:41.415Z,39.84
2023-05-05T11:38:41.503Z,39.74
2023-05-05T11:39:41.463Z,39.69
2023-05-05T11:40:41.473Z,39.63
2023-05-05T11:41:41.485Z,39.70
2023-05-05T11:42:41.500Z,39.62
2023-05-05T11:43:41.560Z,39.55
2023-05-05T11:44:41.590Z,39.57
2023-05-05T11:45:41.646Z,39.30
2023-05-05T11:46:41.780Z,39.05
2023-05-05T11:47:41.750Z,39.13
2023-05-05T11:48:41.778Z,39.03
2023-05-05T11:49:41.801Z,39.11
2023-05-05T11:50:41.862Z,39.08
2023-05-05T11:51:41.881Z,39.10
2023-05-05T11:52:41.929Z,38.94
2023-05-05T11:53:42.005Z,38.95
2023-05-05T11:54:42.124Z,38.95
2023-05-05T11:55:42.131Z,38.93
2023-05-05T11:56:42.133Z,38.95
2023-05-05T11:57:42.194Z,38.99
2023-05-05T11:58:42.243Z,39.07
2023-05-05T11:59:42.329Z,39.13
2023-05-05T12:00:42.357Z,39.07
2023-05-05T12:01:42.442Z,39.03
2023-05-05T12:02:42.561Z,38.95
2023-05-05T12:03:42.573Z,38.98
2023-05-05T12:04:43.338Z,38.96
2023-05-05T12:05:42.735Z,38.92
2023-05-05T12:06:42.670Z,38.89
2023-05-05T12:07:42.708Z,38.82
2023-05-05T12:08:42.775Z,38.73
2023-05-05T12:09:42.829Z,38.69
2023-05-05T12:10:42.904Z,38.57
2023-05-05T12:11:42.908Z,38.45
2023-05-05T12:12:42.992Z,38.36
2023-05-05T12:13:43.007Z,38.30
2023-05-05T12:14:43.033Z,38.16
2023-05-05T12:15:43.102Z,38.15
2023-05-05T12:16:43.187Z,38.18
2023-05-05T12:17:43.236Z,38.23
2023-05-05T12:18:43.204Z,38.21
2023-05-05T12:19:43.275Z,38.17
2023-05-05T12:20:43.319Z,38.05
2023-05-05T12:21:43.384Z,37.94
2023-05-05T12:22:43.402Z,37.96
2023-05-05T12:23:43.473Z,37.93
2023-05-05T12:24:43.476Z,37.95
2023-05-05T12:25:43.524Z,38.00
2023-05-05T12:26:43.665Z,38.05
2023-05-05T12:27:43.611Z,38.16
2023-05-05T12:28:43.640Z,38.05
2023-05-05T12:29:43.694Z,37.93
2023-05-05T12:30:43.839Z,37.90
2023-05-05T12:31:43.801Z,37.88
2023-05-05T12:32:43.961Z,37.80
2023-05-05T12:33:43.842Z,37.76
2023-05-05T12:34:43.884Z,37.71
2023-05-05T12:35:43.966Z,37.82
2023-05-05T12:36:44.014Z,37.77
2023-05-05T12:37:44.081Z,37.63
2023-05-05T12:38:44.098Z,37.45
2023-05-05T12:39:44.144Z,37.43
2023-05-05T12:40:44.206Z,37.34
2023-05-05T12:41:44.251Z,37.24
2023-05-05T12:42:46.296Z,37.19
2023-05-05T12:43:44.378Z,37.12
2023-05-05T12:44:44.450Z,37.10
2023-05-05T12:45:44.507Z,37.08
2023-05-05T12:46:44.528Z,37.04
2023-05-05T12:47:44.571Z,37.09
2023-05-05T12:48:47.967Z,36.99
2023-05-05T12:49:44.634Z,37.12
2023-05-05T12:50:44.594Z,37.12
2023-05-05T12:51:44.563Z,37.16
2023-05-05T12:52:44.578Z,37.81